sensor_id;sensor_type;location;lat;lon;timestamp;P1;durP1;ratioP1;P2;durP2;ratioP2
54372;SDS011;69157;53.094;10.016;2023-06-04T00:02:17;1.30;;;0.90;;
54372;SDS011;69157;53.094;10.016;2023-06-04T00:04:43;1.23;;;0.88;;
54372;SDS011;69157;53.094;10.016;2023-06-04T00:07:09;1.48;;;0.93;;
54372;SDS011;69157;53.094;10.016;2023-06-04T00:09:35;1.85;;;1.02;;
54372;SDS011;69157;53.094;10.016;2023-06-04T00:12:01;1.90;;;1.15;;
54372;SDS011;69157;53.094;10.016;2023-06-04T00:14:27;1.20;;;1.02;;
54372;SDS011;69157;53.094;10.016;2023-06-04T00:16:53;1.15;;;0.93;;
54372;SDS011;69157;53.094;10.016;2023-06-04T00:19:19;0.80;;;0.73;;
54372;SDS011;69157;53.094;10.016;2023-06-04T00:21:45;1.52;;;0.85;;
54372;SDS011;69157;53.094;10.016;2023-06-04T00:24:11;1.40;;;1.00;;
54372;SDS011;69157;53.094;10.016;2023-06-04T00:26:38;0.93;;;0.70;;
54372;SDS011;69157;53.094;10.016;2023-06-04T00:29:04;1.00;;;0.85;;
54372;SDS011;69157;53.094;10.016;2023-06-04T00:31:30;2.28;;;1.13;;
54372;SDS011;69157;53.094;10.016;2023-06-04T00:33:56;0.95;;;0.75;;
54372;SDS011;69157;53.094;10.016;2023-06-04T00:36:22;2.03;;;1.08;;
54372;SDS011;69157;53.094;10.016;2023-06-04T00:38:48;1.45;;;1.00;;
54372;SDS011;69157;53.094;10.016;2023-06-04T00:41:14;1.55;;;1.10;;
54372;SDS011;69157;53.094;10.016;2023-06-04T00:43:40;1.15;;;0.75;;
54372;SDS011;69157;53.094;10.016;2023-06-04T00:46:11;1.50;;;1.05;;
54372;SDS011;69157;53.094;10.016;2023-06-04T00:48:43;1.42;;;1.25;;
54372;SDS011;69157;53.094;10.016;2023-06-04T00:51:09;1.02;;;0.95;;
54372;SDS011;69157;53.094;10.016;2023-06-04T00:53:35;1.17;;;1.08;;
54372;SDS011;69157;53.094;10.016;2023-06-04T00:56:01;1.45;;;1.00;;
54372;SDS011;69157;53.094;10.016;2023-06-04T00:58:30;0.93;;;0.90;;
54372;SDS011;69157;53.094;10.016;2023-06-04T01:00:56;1.10;;;1.00;;
54372;SDS011;69157;53.094;10.016;2023-06-04T01:03:22;1.73;;;0.98;;
54372;SDS011;69157;53.094;10.016;2023-06-04T01:05:57;1.45;;;0.90;;
54372;SDS011;69157;53.094;10.016;2023-06-04T01:08:26;1.10;;;1.00;;
54372;SDS011;69157;53.094;10.016;2023-06-04T01:10:53;1.38;;;1.15;;
54372;SDS011;69157;53.094;10.016;2023-06-04T01:13:20;2.38;;;1.00;;
54372;SDS011;69157;53.094;10.016;2023-06-04T01:15:46;1.23;;;0.93;;
54372;SDS011;69157;53.094;10.016;2023-06-04T01:18:13;1.17;;;1.08;;
54372;SDS011;69157;53.094;10.016;2023-06-04T01:21:02;0.90;;;0.90;;
54372;SDS011;69157;53.094;10.016;2023-06-04T01:23:40;1.80;;;1.08;;
54372;SDS011;69157;53.094;10.016;2023-06-04T01:26:10;2.13;;;1.05;;
54372;SDS011;69157;53.094;10.016;2023-06-04T01:28:37;1.75;;;1.20;;
54372;SDS011;69157;53.094;10.016;2023-06-04T01:31:04;2.40;;;1.05;;
54372;SDS011;69157;53.094;10.016;2023-06-04T01:33:32;1.67;;;1.20;;
54372;SDS011;69157;53.094;10.016;2023-06-04T01:35:58;1.45;;;1.02;;
54372;SDS011;69157;53.094;10.016;2023-06-04T01:38:26;1.27;;;1.02;;
54372;SDS011;69157;53.094;10.016;2023-06-04T01:40:52;2.67;;;1.10;;
54372;SDS011;69157;53.094;10.016;2023-06-04T01:43:21;1.95;;;1.20;;
54372;SDS011;69157;53.094;10.016;2023-06-04T01:45:47;1.20;;;1.10;;
54372;SDS011;69157;53.094;10.016;2023-06-04T01:48:13;1.80;;;1.20;;
54372;SDS011;69157;53.094;10.016;2023-06-04T01:50:40;2.00;;;1.08;;
54372;SDS011;69157;53.094;10.016;2023-06-04T01:53:06;2.30;;;1.05;;
54372;SDS011;69157;53.094;10.016;2023-06-04T01:55:32;1.98;;;1.20;;
54372;SDS011;69157;53.094;10.016;2023-06-04T01:57:59;1.52;;;1.30;;
54372;SDS011;69157;53.094;10.016;2023-06-04T02:00:25;1.02;;;0.88;;
54372;SDS011;69157;53.094;10.016;2023-06-04T02:02:52;1.50;;;1.40;;
54372;SDS011;69157;53.094;10.016;2023-06-04T02:05:20;1.17;;;1.08;;
54372;SDS011;69157;53.094;10.016;2023-06-04T02:07:46;0.95;;;0.82;;
54372;SDS011;69157;53.094;10.016;2023-06-04T02:10:13;1.45;;;1.00;;
54372;SDS011;69157;53.094;10.016;2023-06-04T02:12:40;1.17;;;0.98;;
54372;SDS011;69157;53.094;10.016;2023-06-04T02:15:09;1.00;;;0.90;;
54372;SDS011;69157;53.094;10.016;2023-06-04T02:17:36;1.10;;;1.00;;
54372;SDS011;69157;53.094;10.016;2023-06-04T02:20:07;1.02;;;0.95;;
54372;SDS011;69157;53.094;10.016;2023-06-04T02:22:34;2.75;;;1.30;;
54372;SDS011;69157;53.094;10.016;2023-06-04T02:25:00;1.38;;;0.93;;
54372;SDS011;69157;53.094;10.016;2023-06-04T02:27:26;1.67;;;1.20;;
54372;SDS011;69157;53.094;10.016;2023-06-04T02:29:53;1.48;;;1.10;;
54372;SDS011;69157;53.094;10.016;2023-06-04T02:32:19;1.40;;;1.30;;
54372;SDS011;69157;53.094;10.016;2023-06-04T02:34:45;2.33;;;1.17;;
54372;SDS011;69157;53.094;10.016;2023-06-04T02:37:11;1.85;;;1.00;;
54372;SDS011;69157;53.094;10.016;2023-06-04T02:39:37;1.55;;;1.45;;
54372;SDS011;69157;53.094;10.016;2023-06-04T02:42:03;1.27;;;1.17;;
54372;SDS011;69157;53.094;10.016;2023-06-04T02:44:29;3.10;;;1.15;;
54372;SDS011;69157;53.094;10.016;2023-06-04T02:46:55;1.15;;;1.00;;
54372;SDS011;69157;53.094;10.016;2023-06-04T02:49:22;2.88;;;1.17;;
54372;SDS011;69157;53.094;10.016;2023-06-04T02:51:48;1.58;;;1.23;;
54372;SDS011;69157;53.094;10.016;2023-06-04T02:54:14;1.60;;;1.45;;
54372;SDS011;69157;53.094;10.016;2023-06-04T02:56:42;1.65;;;1.35;;
54372;SDS011;69157;53.094;10.016;2023-06-04T02:59:08;0.98;;;0.95;;
54372;SDS011;69157;53.094;10.016;2023-06-04T03:01:34;4.00;;;1.27;;
54372;SDS011;69157;53.094;10.016;2023-06-04T03:04:00;2.13;;;1.48;;
54372;SDS011;69157;53.094;10.016;2023-06-04T03:06:29;1.17;;;1.08;;
54372;SDS011;69157;53.094;10.016;2023-06-04T03:08:57;1.75;;;1.33;;
54372;SDS011;69157;53.094;10.016;2023-06-04T03:11:23;1.85;;;1.30;;
54372;SDS011;69157;53.094;10.016;2023-06-04T03:13:49;1.83;;;1.25;;
54372;SDS011;69157;53.094;10.016;2023-06-04T03:16:17;1.65;;;1.13;;
54372;SDS011;69157;53.094;10.016;2023-06-04T03:18:44;1.65;;;1.40;;
54372;SDS011;69157;53.094;10.016;2023-06-04T03:21:10;1.58;;;1.10;;
54372;SDS011;69157;53.094;10.016;2023-06-04T03:23:36;1.02;;;0.90;;
54372;SDS011;69157;53.094;10.016;2023-06-04T03:26:03;1.63;;;1.10;;
54372;SDS011;69157;53.094;10.016;2023-06-04T03:28:30;1.23;;;1.13;;
54372;SDS011;69157;53.094;10.016;2023-06-04T03:30:56;1.25;;;1.10;;
54372;SDS011;69157;53.094;10.016;2023-06-04T03:33:22;1.15;;;1.08;;
54372;SDS011;69157;53.094;10.016;2023-06-04T03:35:49;1.17;;;1.08;;
54372;SDS011;69157;53.094;10.016;2023-06-04T03:38:15;1.60;;;1.30;;
54372;SDS011;69157;53.094;10.016;2023-06-04T03:40:42;1.50;;;1.25;;
54372;SDS011;69157;53.094;10.016;2023-06-04T03:43:08;1.20;;;1.10;;
54372;SDS011;69157;53.094;10.016;2023-06-04T03:45:34;1.70;;;1.10;;
54372;SDS011;69157;53.094;10.016;2023-06-04T03:48:01;1.00;;;0.90;;
54372;SDS011;69157;53.094;10.016;2023-06-04T03:50:27;1.13;;;1.02;;
54372;SDS011;69157;53.094;10.016;2023-06-04T03:52:53;2.03;;;1.30;;
54372;SDS011;69157;53.094;10.016;2023-06-04T03:55:19;1.83;;;1.35;;
54372;SDS011;69157;53.094;10.016;2023-06-04T03:57:45;1.80;;;1.40;;
54372;SDS011;69157;53.094;10.016;2023-06-04T04:00:11;2.92;;;1.35;;
54372;SDS011;69157;53.094;10.016;2023-06-04T04:02:39;1.40;;;1.17;;
54372;SDS011;69157;53.094;10.016;2023-06-04T04:05:05;3.30;;;1.67;;
54372;SDS011;69157;53.094;10.016;2023-06-04T04:07:31;1.55;;;1.38;;
54372;SDS011;69157;53.094;10.016;2023-06-04T04:09:57;3.15;;;1.08;;
54372;SDS011;69157;53.094;10.016;2023-06-04T04:12:23;1.83;;;1.52;;
54372;SDS011;69157;53.094;10.016;2023-06-04T04:14:49;4.22;;;1.17;;
54372;SDS011;69157;53.094;10.016;2023-06-04T04:17:15;1.33;;;0.85;;
54372;SDS011;69157;53.094;10.016;2023-06-04T04:19:41;1.58;;;1.27;;
54372;SDS011;69157;53.094;10.016;2023-06-04T04:22:09;1.40;;;1.30;;
54372;SDS011;69157;53.094;10.016;2023-06-04T04:24:35;2.22;;;1.60;;
54372;SDS011;69157;53.094;10.016;2023-06-04T04:27:03;1.65;;;1.48;;
54372;SDS011;69157;53.094;10.016;2023-06-04T04:29:29;1.20;;;1.10;;
54372;SDS011;69157;53.094;10.016;2023-06-04T04:31:58;1.55;;;1.20;;
54372;SDS011;69157;53.094;10.016;2023-06-04T04:34:37;3.17;;;1.42;;
54372;SDS011;69157;53.094;10.016;2023-06-04T04:37:04;3.10;;;1.55;;
54372;SDS011;69157;53.094;10.016;2023-06-04T04:39:33;1.00;;;0.90;;
54372;SDS011;69157;53.094;10.016;2023-06-04T04:41:59;6.95;;;1.20;;
54372;SDS011;69157;53.094;10.016;2023-06-04T04:44:25;1.58;;;1.23;;
54372;SDS011;69157;53.094;10.016;2023-06-04T04:46:51;1.58;;;1.20;;
54372;SDS011;69157;53.094;10.016;2023-06-04T04:49:17;1.60;;;1.30;;
54372;SDS011;69157;53.094;10.016;2023-06-04T04:51:43;1.52;;;1.00;;
54372;SDS011;69157;53.094;10.016;2023-06-04T04:54:09;1.00;;;0.95;;
54372;SDS011;69157;53.094;10.016;2023-06-04T04:56:35;1.35;;;1.25;;
54372;SDS011;69157;53.094;10.016;2023-06-04T04:59:01;2.03;;;1.23;;
54372;SDS011;69157;53.094;10.016;2023-06-04T05:01:27;2.47;;;1.52;;
54372;SDS011;69157;53.094;10.016;2023-06-04T05:03:53;1.85;;;1.20;;
54372;SDS011;69157;53.094;10.016;2023-06-04T05:06:20;1.90;;;1.40;;
54372;SDS011;69157;53.094;10.016;2023-06-04T05:08:46;4.93;;;1.27;;
54372;SDS011;69157;53.094;10.016;2023-06-04T05:11:12;1.27;;;1.10;;
54372;SDS011;69157;53.094;10.016;2023-06-04T05:13:38;1.67;;;1.40;;
54372;SDS011;69157;53.094;10.016;2023-06-04T05:16:06;1.55;;;1.20;;
54372;SDS011;69157;53.094;10.016;2023-06-04T05:18:33;1.40;;;1.20;;
54372;SDS011;69157;53.094;10.016;2023-06-04T05:20:59;1.25;;;1.00;;
54372;SDS011;69157;53.094;10.016;2023-06-04T05:23:27;1.02;;;0.93;;
54372;SDS011;69157;53.094;10.016;2023-06-04T05:25:55;1.27;;;1.00;;
54372;SDS011;69157;53.094;10.016;2023-06-04T05:28:21;1.10;;;0.90;;
54372;SDS011;69157;53.094;10.016;2023-06-04T05:30:49;3.28;;;0.98;;
54372;SDS011;69157;53.094;10.016;2023-06-04T05:33:15;1.05;;;0.90;;
54372;SDS011;69157;53.094;10.016;2023-06-04T05:35:46;1.10;;;0.95;;
54372;SDS011;69157;53.094;10.016;2023-06-04T05:38:17;1.10;;;0.90;;
54372;SDS011;69157;53.094;10.016;2023-06-04T05:40:51;0.88;;;0.85;;
54372;SDS011;69157;53.094;10.016;2023-06-04T05:43:17;1.27;;;1.00;;
54372;SDS011;69157;53.094;10.016;2023-06-04T05:45:43;2.05;;;0.77;;
54372;SDS011;69157;53.094;10.016;2023-06-04T05:48:10;1.50;;;0.65;;
54372;SDS011;69157;53.094;10.016;2023-06-04T05:50:36;0.70;;;0.70;;
54372;SDS011;69157;53.094;10.016;2023-06-04T05:53:02;0.98;;;0.90;;
54372;SDS011;69157;53.094;10.016;2023-06-04T05:55:28;0.95;;;0.80;;
54372;SDS011;69157;53.094;10.016;2023-06-04T05:57:54;1.10;;;0.80;;
54372;SDS011;69157;53.094;10.016;2023-06-04T06:00:21;1.05;;;0.70;;
54372;SDS011;69157;53.094;10.016;2023-06-04T06:02:47;0.88;;;0.57;;
54372;SDS011;69157;53.094;10.016;2023-06-04T06:05:14;0.70;;;0.65;;
54372;SDS011;69157;53.094;10.016;2023-06-04T06:07:40;0.85;;;0.70;;
54372;SDS011;69157;53.094;10.016;2023-06-04T06:10:06;0.50;;;0.50;;
54372;SDS011;69157;53.094;10.016;2023-06-04T06:12:33;0.85;;;0.77;;
54372;SDS011;69157;53.094;10.016;2023-06-04T06:15:00;0.50;;;0.50;;
54372;SDS011;69157;53.094;10.016;2023-06-04T06:17:26;0.95;;;0.60;;
54372;SDS011;69157;53.094;10.016;2023-06-04T06:19:53;1.58;;;0.80;;
54372;SDS011;69157;53.094;10.016;2023-06-04T06:22:19;0.80;;;0.70;;
54372;SDS011;69157;53.094;10.016;2023-06-04T06:24:45;1.23;;;0.80;;
54372;SDS011;69157;53.094;10.016;2023-06-04T06:27:13;1.60;;;0.70;;
54372;SDS011;69157;53.094;10.016;2023-06-04T06:29:40;1.02;;;0.60;;
54372;SDS011;69157;53.094;10.016;2023-06-04T06:32:07;0.80;;;0.60;;
54372;SDS011;69157;53.094;10.016;2023-06-04T06:34:33;0.90;;;0.80;;
54372;SDS011;69157;53.094;10.016;2023-06-04T06:36:59;0.95;;;0.75;;
54372;SDS011;69157;53.094;10.016;2023-06-04T06:39:25;1.45;;;0.68;;
54372;SDS011;69157;53.094;10.016;2023-06-04T06:41:51;1.33;;;0.52;;
54372;SDS011;69157;53.094;10.016;2023-06-04T06:44:17;0.75;;;0.50;;
54372;SDS011;69157;53.094;10.016;2023-06-04T06:46:43;0.73;;;0.40;;
54372;SDS011;69157;53.094;10.016;2023-06-04T06:49:09;1.13;;;0.50;;
54372;SDS011;69157;53.094;10.016;2023-06-04T06:51:35;0.50;;;0.50;;
54372;SDS011;69157;53.094;10.016;2023-06-04T06:54:01;0.50;;;0.50;;
54372;SDS011;69157;53.094;10.016;2023-06-04T06:56:27;0.50;;;0.50;;
54372;SDS011;69157;53.094;10.016;2023-06-04T06:58:53;0.93;;;0.50;;
54372;SDS011;69157;53.094;10.016;2023-06-04T07:01:20;0.50;;;0.50;;
54372;SDS011;69157;53.094;10.016;2023-06-04T07:03:46;0.50;;;0.50;;
54372;SDS011;69157;53.094;10.016;2023-06-04T07:06:12;0.52;;;0.45;;
54372;SDS011;69157;53.094;10.016;2023-06-04T07:08:39;0.45;;;0.43;;
54372;SDS011;69157;53.094;10.016;2023-06-04T07:11:05;0.60;;;0.60;;
54372;SDS011;69157;53.094;10.016;2023-06-04T07:13:32;0.63;;;0.50;;
54372;SDS011;69157;53.094;10.016;2023-06-04T07:16:00;0.77;;;0.50;;
54372;SDS011;69157;53.094;10.016;2023-06-04T07:18:26;0.40;;;0.38;;
54372;SDS011;69157;53.094;10.016;2023-06-04T07:20:52;0.50;;;0.45;;
54372;SDS011;69157;53.094;10.016;2023-06-04T07:23:18;0.38;;;0.30;;
54372;SDS011;69157;53.094;10.016;2023-06-04T07:25:44;0.82;;;0.60;;
54372;SDS011;69157;53.094;10.016;2023-06-04T07:28:10;0.45;;;0.35;;
54372;SDS011;69157;53.094;10.016;2023-06-04T07:30:37;0.40;;;0.40;;
54372;SDS011;69157;53.094;10.016;2023-06-04T07:33:03;0.40;;;0.40;;
54372;SDS011;69157;53.094;10.016;2023-06-04T07:35:29;1.17;;;0.40;;
54372;SDS011;69157;53.094;10.016;2023-06-04T07:37:55;0.57;;;0.50;;
54372;SDS011;69157;53.094;10.016;2023-06-04T07:40:21;0.65;;;0.40;;
54372;SDS011;69157;53.094;10.016;2023-06-04T07:42:47;0.40;;;0.40;;
54372;SDS011;69157;53.094;10.016;2023-06-04T07:45:14;0.38;;;0.38;;
54372;SDS011;69157;53.094;10.016;2023-06-04T07:47:40;0.40;;;0.40;;
54372;SDS011;69157;53.094;10.016;2023-06-04T07:50:06;0.47;;;0.43;;
54372;SDS011;69157;53.094;10.016;2023-06-04T07:52:33;0.70;;;0.30;;
54372;SDS011;69157;53.094;10.016;2023-06-04T07:55:00;0.30;;;0.20;;
54372;SDS011;69157;53.094;10.016;2023-06-04T07:57:26;0.30;;;0.30;;
54372;SDS011;69157;53.094;10.016;2023-06-04T07:59:52;0.40;;;0.40;;
54372;SDS011;69157;53.094;10.016;2023-06-04T08:02:18;0.50;;;0.40;;
54372;SDS011;69157;53.094;10.016;2023-06-04T08:04:44;0.50;;;0.50;;
54372;SDS011;69157;53.094;10.016;2023-06-04T08:07:14;0.30;;;0.30;;
54372;SDS011;69157;53.094;10.016;2023-06-04T08:09:40;0.40;;;0.30;;
54372;SDS011;69157;53.094;10.016;2023-06-04T08:12:06;0.60;;;0.50;;
54372;SDS011;69157;53.094;10.016;2023-06-04T08:14:32;0.85;;;0.30;;
54372;SDS011;69157;53.094;10.016;2023-06-04T08:16:58;1.08;;;0.50;;
54372;SDS011;69157;53.094;10.016;2023-06-04T08:19:24;0.38;;;0.30;;
54372;SDS011;69157;53.094;10.016;2023-06-04T08:21:50;1.98;;;0.40;;
54372;SDS011;69157;53.094;10.016;2023-06-04T08:24:16;0.30;;;0.30;;
54372;SDS011;69157;53.094;10.016;2023-06-04T08:26:42;0.40;;;0.40;;
54372;SDS011;69157;53.094;10.016;2023-06-04T08:29:08;0.45;;;0.38;;
54372;SDS011;69157;53.094;10.016;2023-06-04T08:31:34;0.50;;;0.40;;
54372;SDS011;69157;53.094;10.016;2023-06-04T08:34:00;0.70;;;0.40;;
54372;SDS011;69157;53.094;10.016;2023-06-04T08:36:30;0.30;;;0.30;;
54372;SDS011;69157;53.094;10.016;2023-06-04T08:38:57;0.40;;;0.40;;
54372;SDS011;69157;53.094;10.016;2023-06-04T08:43:51;0.70;;;0.35;;
54372;SDS011;69157;53.094;10.016;2023-06-04T08:46:17;0.45;;;0.45;;
54372;SDS011;69157;53.094;10.016;2023-06-04T08:48:44;0.77;;;0.52;;
54372;SDS011;69157;53.094;10.016;2023-06-04T08:51:10;0.38;;;0.38;;
54372;SDS011;69157;53.094;10.016;2023-06-04T08:53:36;0.60;;;0.60;;
54372;SDS011;69157;53.094;10.016;2023-06-04T08:56:03;0.63;;;0.50;;
54372;SDS011;69157;53.094;10.016;2023-06-04T08:58:30;0.68;;;0.57;;
54372;SDS011;69157;53.094;10.016;2023-06-04T09:00:58;0.60;;;0.50;;
54372;SDS011;69157;53.094;10.016;2023-06-04T09:03:24;0.40;;;0.40;;
54372;SDS011;69157;53.094;10.016;2023-06-04T09:05:51;0.93;;;0.50;;
54372;SDS011;69157;53.094;10.016;2023-06-04T09:08:18;0.82;;;0.55;;
54372;SDS011;69157;53.094;10.016;2023-06-04T09:10:45;0.65;;;0.40;;
54372;SDS011;69157;53.094;10.016;2023-06-04T09:13:14;0.90;;;0.38;;
54372;SDS011;69157;53.094;10.016;2023-06-04T09:15:41;0.80;;;0.60;;
54372;SDS011;69157;53.094;10.016;2023-06-04T09:18:07;0.50;;;0.50;;
54372;SDS011;69157;53.094;10.016;2023-06-04T09:20:33;0.65;;;0.55;;
54372;SDS011;69157;53.094;10.016;2023-06-04T09:22:59;1.17;;;1.10;;
54372;SDS011;69157;53.094;10.016;2023-06-04T09:25:26;0.60;;;0.60;;
54372;SDS011;69157;53.094;10.016;2023-06-04T09:27:56;0.75;;;0.57;;
54372;SDS011;69157;53.094;10.016;2023-06-04T09:30:23;2.22;;;0.63;;
54372;SDS011;69157;53.094;10.016;2023-06-04T09:32:49;1.17;;;0.50;;
54372;SDS011;69157;53.094;10.016;2023-06-04T09:35:16;0.93;;;0.57;;
54372;SDS011;69157;53.094;10.016;2023-06-04T09:37:43;1.35;;;0.65;;
54372;SDS011;69157;53.094;10.016;2023-06-04T09:40:17;0.47;;;0.40;;
54372;SDS011;69157;53.094;10.016;2023-06-04T09:42:43;0.50;;;0.40;;
54372;SDS011;69157;53.094;10.016;2023-06-04T09:45:10;1.27;;;0.60;;
54372;SDS011;69157;53.094;10.016;2023-06-04T09:47:42;1.67;;;0.68;;
54372;SDS011;69157;53.094;10.016;2023-06-04T09:50:10;0.35;;;0.35;;
54372;SDS011;69157;53.094;10.016;2023-06-04T09:52:37;0.50;;;0.50;;
54372;SDS011;69157;53.094;10.016;2023-06-04T09:55:14;1.23;;;0.60;;
54372;SDS011;69157;53.094;10.016;2023-06-04T09:57:44;0.50;;;0.50;;
54372;SDS011;69157;53.094;10.016;2023-06-04T10:00:10;0.43;;;0.40;;
54372;SDS011;69157;53.094;10.016;2023-06-04T10:02:37;0.90;;;0.50;;
54372;SDS011;69157;53.094;10.016;2023-06-04T10:05:03;0.50;;;0.50;;
54372;SDS011;69157;53.094;10.016;2023-06-04T10:07:33;0.60;;;0.40;;
54372;SDS011;69157;53.094;10.016;2023-06-04T10:10:02;1.73;;;0.63;;
54372;SDS011;69157;53.094;10.016;2023-06-04T10:12:29;0.50;;;0.50;;
54372;SDS011;69157;53.094;10.016;2023-06-04T10:14:59;0.40;;;0.40;;
54372;SDS011;69157;53.094;10.016;2023-06-04T10:17:28;0.70;;;0.52;;
54372;SDS011;69157;53.094;10.016;2023-06-04T10:19:55;2.65;;;0.65;;
54372;SDS011;69157;53.094;10.016;2023-06-04T10:22:22;0.50;;;0.47;;
54372;SDS011;69157;53.094;10.016;2023-06-04T10:24:48;0.60;;;0.60;;
54372;SDS011;69157;53.094;10.016;2023-06-04T10:27:14;1.10;;;0.50;;
54372;SDS011;69157;53.094;10.016;2023-06-04T10:29:42;0.63;;;0.60;;
54372;SDS011;69157;53.094;10.016;2023-06-04T10:32:08;0.63;;;0.60;;
54372;SDS011;69157;53.094;10.016;2023-06-04T10:34:35;0.47;;;0.45;;
54372;SDS011;69157;53.094;10.016;2023-06-04T10:37:01;0.82;;;0.63;;
54372;SDS011;69157;53.094;10.016;2023-06-04T10:39:28;0.55;;;0.43;;
54372;SDS011;69157;53.094;10.016;2023-06-04T10:42:06;0.98;;;0.73;;
54372;SDS011;69157;53.094;10.016;2023-06-04T10:44:45;0.43;;;0.40;;
54372;SDS011;69157;53.094;10.016;2023-06-04T10:47:18;0.80;;;0.50;;
54372;SDS011;69157;53.094;10.016;2023-06-04T10:49:45;1.17;;;0.70;;
54372;SDS011;69157;53.094;10.016;2023-06-04T10:52:11;1.00;;;0.60;;
54372;SDS011;69157;53.094;10.016;2023-06-04T10:54:37;0.70;;;0.45;;
54372;SDS011;69157;53.094;10.016;2023-06-04T10:57:12;0.68;;;0.50;;
54372;SDS011;69157;53.094;10.016;2023-06-04T10:59:38;0.50;;;0.50;;
54372;SDS011;69157;53.094;10.016;2023-06-04T11:02:05;1.45;;;0.40;;
54372;SDS011;69157;53.094;10.016;2023-06-04T11:04:32;0.98;;;0.60;;
54372;SDS011;69157;53.094;10.016;2023-06-04T11:07:01;0.75;;;0.65;;
54372;SDS011;69157;53.094;10.016;2023-06-04T11:09:28;1.00;;;0.50;;
54372;SDS011;69157;53.094;10.016;2023-06-04T11:11:58;0.43;;;0.43;;
54372;SDS011;69157;53.094;10.016;2023-06-04T11:14:24;0.90;;;0.50;;
54372;SDS011;69157;53.094;10.016;2023-06-04T11:16:50;0.60;;;0.57;;
54372;SDS011;69157;53.094;10.016;2023-06-04T11:19:16;0.60;;;0.40;;
54372;SDS011;69157;53.094;10.016;2023-06-04T11:21:43;0.85;;;0.82;;
54372;SDS011;69157;53.094;10.016;2023-06-04T11:24:09;0.63;;;0.60;;
54372;SDS011;69157;53.094;10.016;2023-06-04T11:26:37;0.70;;;0.45;;
54372;SDS011;69157;53.094;10.016;2023-06-04T11:29:07;0.70;;;0.50;;
54372;SDS011;69157;53.094;10.016;2023-06-04T11:31:43;2.65;;;0.70;;
54372;SDS011;69157;53.094;10.016;2023-06-04T11:34:10;0.88;;;0.52;;
54372;SDS011;69157;53.094;10.016;2023-06-04T11:36:39;1.70;;;0.80;;
54372;SDS011;69157;53.094;10.016;2023-06-04T11:39:05;0.52;;;0.50;;
54372;SDS011;69157;53.094;10.016;2023-06-04T11:41:32;0.77;;;0.60;;
54372;SDS011;69157;53.094;10.016;2023-06-04T11:44:00;0.60;;;0.50;;
54372;SDS011;69157;53.094;10.016;2023-06-04T11:46:26;0.70;;;0.65;;
54372;SDS011;69157;53.094;10.016;2023-06-04T11:48:53;1.02;;;0.60;;
54372;SDS011;69157;53.094;10.016;2023-06-04T11:51:19;0.50;;;0.50;;
54372;SDS011;69157;53.094;10.016;2023-06-04T11:53:46;0.50;;;0.50;;
54372;SDS011;69157;53.094;10.016;2023-06-04T11:56:12;0.60;;;0.60;;
54372;SDS011;69157;53.094;10.016;2023-06-04T11:58:38;0.50;;;0.47;;
54372;SDS011;69157;53.094;10.016;2023-06-04T12:01:06;0.95;;;0.60;;
54372;SDS011;69157;53.094;10.016;2023-06-04T12:03:41;1.08;;;0.70;;
54372;SDS011;69157;53.094;10.016;2023-06-04T12:06:15;1.48;;;0.50;;
54372;SDS011;69157;53.094;10.016;2023-06-04T12:08:54;2.13;;;0.70;;
54372;SDS011;69157;53.094;10.016;2023-06-04T12:13:57;0.55;;;0.55;;
54372;SDS011;69157;53.094;10.016;2023-06-04T12:16:23;0.65;;;0.65;;
54372;SDS011;69157;53.094;10.016;2023-06-04T12:18:49;1.15;;;0.70;;
54372;SDS011;69157;53.094;10.016;2023-06-04T12:21:25;0.98;;;0.70;;
54372;SDS011;69157;53.094;10.016;2023-06-04T12:24:04;0.80;;;0.60;;
54372;SDS011;69157;53.094;10.016;2023-06-04T12:26:31;0.70;;;0.57;;
54372;SDS011;69157;53.094;10.016;2023-06-04T12:29:02;0.73;;;0.63;;
54372;SDS011;69157;53.094;10.016;2023-06-04T12:31:29;1.00;;;0.68;;
54372;SDS011;69157;53.094;10.016;2023-06-04T12:33:57;0.85;;;0.60;;
54372;SDS011;69157;53.094;10.016;2023-06-04T12:36:23;0.57;;;0.57;;
54372;SDS011;69157;53.094;10.016;2023-06-04T12:38:49;1.13;;;0.65;;
54372;SDS011;69157;53.094;10.016;2023-06-04T12:41:15;1.23;;;0.70;;
54372;SDS011;69157;53.094;10.016;2023-06-04T12:43:41;0.40;;;0.40;;
54372;SDS011;69157;53.094;10.016;2023-06-04T12:46:07;0.98;;;0.55;;
54372;SDS011;69157;53.094;10.016;2023-06-04T12:48:33;3.08;;;0.60;;
54372;SDS011;69157;53.094;10.016;2023-06-04T12:50:59;0.82;;;0.82;;
54372;SDS011;69157;53.094;10.016;2023-06-04T12:53:25;1.17;;;0.70;;
54372;SDS011;69157;53.094;10.016;2023-06-04T12:55:51;3.25;;;0.70;;
54372;SDS011;69157;53.094;10.016;2023-06-04T12:58:18;1.52;;;0.60;;
54372;SDS011;69157;53.094;10.016;2023-06-04T13:00:44;0.90;;;0.77;;
54372;SDS011;69157;53.094;10.016;2023-06-04T13:03:10;0.75;;;0.68;;
54372;SDS011;69157;53.094;10.016;2023-06-04T13:05:36;1.08;;;0.70;;
54372;SDS011;69157;53.094;10.016;2023-06-04T13:08:02;0.73;;;0.60;;
54372;SDS011;69157;53.094;10.016;2023-06-04T13:10:28;0.60;;;0.60;;
54372;SDS011;69157;53.094;10.016;2023-06-04T13:12:54;0.95;;;0.68;;
54372;SDS011;69157;53.094;10.016;2023-06-04T13:15:20;1.38;;;0.50;;
54372;SDS011;69157;53.094;10.016;2023-06-04T13:17:47;1.23;;;0.60;;
54372;SDS011;69157;53.094;10.016;2023-06-04T13:20:13;1.45;;;0.65;;
54372;SDS011;69157;53.094;10.016;2023-06-04T13:22:39;0.90;;;0.60;;
54372;SDS011;69157;53.094;10.016;2023-06-04T13:25:05;1.33;;;0.70;;
54372;SDS011;69157;53.094;10.016;2023-06-04T13:27:31;0.55;;;0.55;;
54372;SDS011;69157;53.094;10.016;2023-06-04T13:29:57;0.80;;;0.57;;
54372;SDS011;69157;53.094;10.016;2023-06-04T13:32:23;0.68;;;0.50;;
54372;SDS011;69157;53.094;10.016;2023-06-04T13:34:49;0.80;;;0.80;;
54372;SDS011;69157;53.094;10.016;2023-06-04T13:37:15;0.77;;;0.68;;
54372;SDS011;69157;53.094;10.016;2023-06-04T13:39:41;0.68;;;0.60;;
54372;SDS011;69157;53.094;10.016;2023-06-04T13:42:07;1.00;;;0.80;;
54372;SDS011;69157;53.094;10.016;2023-06-04T13:44:33;5.47;;;1.10;;
54372;SDS011;69157;53.094;10.016;2023-06-04T13:46:59;1.25;;;0.60;;
54372;SDS011;69157;53.094;10.016;2023-06-04T13:49:26;0.82;;;0.57;;
54372;SDS011;69157;53.094;10.016;2023-06-04T13:51:52;1.10;;;0.77;;
54372;SDS011;69157;53.094;10.016;2023-06-04T13:54:18;0.93;;;0.73;;
54372;SDS011;69157;53.094;10.016;2023-06-04T13:56:44;0.85;;;0.60;;
54372;SDS011;69157;53.094;10.016;2023-06-04T13:59:10;1.00;;;0.65;;
54372;SDS011;69157;53.094;10.016;2023-06-04T14:01:36;1.25;;;0.70;;
54372;SDS011;69157;53.094;10.016;2023-06-04T14:04:02;0.85;;;0.70;;
54372;SDS011;69157;53.094;10.016;2023-06-04T14:06:31;0.98;;;0.73;;
54372;SDS011;69157;53.094;10.016;2023-06-04T14:08:57;2.35;;;0.95;;
54372;SDS011;69157;53.094;10.016;2023-06-04T14:11:23;1.35;;;0.70;;
54372;SDS011;69157;53.094;10.016;2023-06-04T14:13:49;0.77;;;0.77;;
54372;SDS011;69157;53.094;10.016;2023-06-04T14:16:15;0.82;;;0.70;;
54372;SDS011;69157;53.094;10.016;2023-06-04T14:18:41;0.88;;;0.73;;
54372;SDS011;69157;53.094;10.016;2023-06-04T14:21:07;1.50;;;0.93;;
54372;SDS011;69157;53.094;10.016;2023-06-04T14:23:33;1.08;;;0.68;;
54372;SDS011;69157;53.094;10.016;2023-06-04T14:26:00;0.95;;;0.75;;
54372;SDS011;69157;53.094;10.016;2023-06-04T14:28:26;2.50;;;0.80;;
54372;SDS011;69157;53.094;10.016;2023-06-04T14:30:52;1.20;;;0.65;;
54372;SDS011;69157;53.094;10.016;2023-06-04T14:33:18;2.40;;;0.82;;
54372;SDS011;69157;53.094;10.016;2023-06-04T14:35:44;1.77;;;0.65;;
54372;SDS011;69157;53.094;10.016;2023-06-04T14:38:12;0.68;;;0.68;;